Time;durP1;ratioP1;P1;durP2;ratioP2;P2;SDS_P1;SDS_P2;PMS_P1;PMS_P2;Temp;Humidity;BMP_temperature;BMP_pressure;BME280_temperature;BME280_humidity;BME280_pressure;Samples;Min_cycle;Max_cycle;Signal;HPM_P1;HPM_P2
2022/10/15 00:00:42;;;;;;;0.73;0.57;;;;;;;17.37;nan;98914.81;4935650;28;20635;-76
2022/10/15 00:03:08;;;;;;;0.90;0.80;;;;;;;17.38;nan;98913.81;4935938;28;20628;-77
2022/10/15 00:05:37;;;;;;;0.90;0.57;;;;;;;17.41;nan;98918.00;4935993;28;20198;-77
2022/10/15 00:08:04;;;;;;;0.70;0.60;;;;;;;17.41;nan;98915.34;4939429;28;20230;-77
2022/10/15 00:10:29;;;;;;;1.00;0.70;;;;;;;17.43;nan;98916.84;4936345;28;20564;-76
2022/10/15 00:12:55;;;;;;;0.73;0.67;;;;;;;17.46;nan;98911.22;4936741;28;20653;-76
2022/10/15 00:15:21;;;;;;;0.85;0.70;;;;;;;17.46;nan;98910.38;4933653;28;20630;-76
2022/10/15 00:17:46;;;;;;;3.93;1.03;;;;;;;17.45;nan;98906.91;4936724;28;20907;-77
2022/10/15 00:20:12;;;;;;;4.20;0.80;;;;;;;17.47;nan;98904.94;4934076;29;20296;-76
2022/10/15 00:22:38;;;;;;;0.60;0.50;;;;;;;17.49;nan;98918.03;4933898;28;20235;-76
2022/10/15 00:25:04;;;;;;;1.13;0.70;;;;;;;17.54;nan;98925.53;4938997;28;20198;-76
2022/10/15 00:27:29;;;;;;;0.70;0.60;;;;;;;17.55;nan;98919.22;4930620;29;20486;-76
2022/10/15 00:29:55;;;;;;;0.90;0.60;;;;;;;17.55;nan;98919.22;4933495;28;20930;-76
2022/10/15 00:32:20;;;;;;;0.73;0.67;;;;;;;17.53;nan;98927.34;4932497;29;20254;-76
2022/10/15 00:34:46;;;;;;;2.20;0.80;;;;;;;17.54;nan;98929.00;4938318;28;20333;-76
2022/10/15 00:37:11;;;;;;;1.03;0.70;;;;;;;17.55;nan;98925.38;4937892;29;20255;-76
2022/10/15 00:39:37;;;;;;;0.70;0.70;;;;;;;17.55;nan;98928.03;4937787;28;20203;-76
2022/10/15 00:42:03;;;;;;;2.13;0.80;;;;;;;17.55;nan;98922.72;4935396;28;20284;-76
2022/10/15 00:44:28;;;;;;;1.93;0.60;;;;;;;17.56;nan;98927.03;4930749;28;20217;-76
2022/10/15 00:47:04;;;;;;;3.33;0.80;;;;;;;17.57;nan;98928.69;4935775;28;20532;-76
2022/10/15 00:49:34;;;;;;;1.10;1.00;;;;;;;17.59;nan;98931.19;4932023;28;20202;-76
2022/10/15 00:52:02;;;;;;;0.63;0.60;;;;;;;17.59;nan;98923.22;4936630;28;20231;-76
2022/10/15 00:54:32;;;;;;;0.80;0.60;;;;;;;17.59;nan;98932.03;4935939;29;20484;-77
2022/10/15 00:56:58;;;;;;;1.00;1.00;;;;;;;17.58;nan;98932.16;4935120;28;20267;-77
2022/10/15 00:59:26;;;;;;;1.10;0.77;;;;;;;17.57;nan;98934.00;4936457;28;20204;-78
2022/10/15 01:01:53;;;;;;;1.10;1.00;;;;;;;17.55;nan;98930.69;4935748;28;20203;-77
2022/10/15 01:04:19;;;;;;;1.00;0.75;;;;;;;17.53;nan;98926.53;4931855;29;20199;-78
2022/10/15 01:06:45;;;;;;;1.10;0.73;;;;;;;17.54;nan;98928.19;4936287;29;20225;-78
2022/10/15 01:09:11;;;;;;;0.90;0.70;;;;;;;17.53;nan;98926.53;4935060;28;20853;-77
2022/10/15 01:11:46;;;;;;;2.15;0.63;;;;;;;17.53;nan;98923.88;4935312;28;20195;-77
2022/10/15 01:14:59;;;;;;;1.08;0.90;;;;;;;17.50;nan;98922.38;4934187;29;20227;-76
2022/10/15 01:17:30;;;;;;;1.20;0.80;;;;;;;17.50;nan;98924.16;4931378;28;20673;-77
2022/10/15 01:20:21;;;;;;;0.80;0.80;;;;;;;17.48;nan;98925.16;4937820;28;21142;-77
2022/10/15 01:22:59;;;;;;;3.50;1.03;;;;;;;17.48;nan;98930.47;4936878;29;20274;-76
2022/10/15 01:25:36;;;;;;;1.70;1.20;;;;;;;17.47;nan;98934.13;4934652;29;20577;-76
2022/10/15 01:28:33;;;;;;;2.25;0.80;;;;;;;17.48;nan;98941.09;4934098;28;20497;-77
2022/10/15 01:31:12;;;;;;;0.70;0.70;;;;;;;17.50;nan;98925.03;4943409;28;20294;-76
2022/10/15 01:33:44;;;;;;;1.77;0.80;;;;;;;17.51;nan;98937.28;4933153;28;20917;-77
2022/10/15 01:36:19;;;;;;;1.35;0.70;;;;;;;17.54;nan;98949.44;4934558;28;20465;-77
2022/10/15 01:38:59;;;;;;;1.38;1.10;;;;;;;17.54;nan;98938.81;4938605;28;20224;-77
2022/10/15 01:41:36;;;;;;;0.90;0.87;;;;;;;17.54;nan;98944.13;4931036;28;20222;-77
2022/10/15 01:44:17;;;;;;;1.90;0.90;;;;;;;17.55;nan;98943.13;4932890;28;20480;-77
2022/10/15 01:47:00;;;;;;;1.50;0.83;;;;;;;17.52;nan;98933.63;4934429;29;20321;-77
2022/10/15 01:49:29;;;;;;;0.90;0.80;;;;;;;17.52;nan;98936.28;4933821;28;20494;-77
2022/10/15 01:51:57;;;;;;;1.58;0.90;;;;;;;17.51;nan;98936.47;4931555;28;20461;-77
2022/10/15 01:54:26;;;;;;;0.80;0.70;;;;;;;17.50;nan;98937.44;4930991;29;20283;-78
2022/10/15 01:56:54;;;;;;;0.90;0.80;;;;;;;17.52;nan;98930.16;4938429;28;20522;-77
2022/10/15 01:59:28;;;;;;;1.00;0.80;;;;;;;17.50;nan;98932.13;4929972;28;20241;-77
2022/10/15 02:01:54;;;;;;;0.90;0.80;;;;;;;17.50;nan;98943.59;4931696;29;20675;-77
2022/10/15 02:04:30;;;;;;;1.50;0.80;;;;;;;17.51;nan;98942.59;4938580;28;20465;-76
2022/10/15 02:07:06;;;;;;;1.00;0.77;;;;;;;17.52;nan;98946.91;4936743;29;20287;-77
2022/10/15 02:09:44;;;;;;;0.70;0.60;;;;;;;17.48;nan;98941.09;4938664;28;20460;-77
2022/10/15 02:12:14;;;;;;;0.80;0.70;;;;;;;17.52;nan;98938.13;4934588;29;20611;-76
2022/10/15 02:15:02;;;;;;;1.13;0.70;;;;;;;17.51;nan;98941.78;4958461;28;20488;-76
2022/10/15 02:17:39;;;;;;;0.80;0.80;;;;;;;17.52;nan;98949.56;4956860;28;20525;-76
2022/10/15 02:20:13;;;;;;;1.83;0.70;;;;;;;17.53;nan;98953.09;4953307;28;20231;-76
2022/10/15 02:22:58;;;;;;;0.80;0.63;;;;;;;17.53;nan;98955.75;4957152;28;20976;-77
2022/10/15 02:25:26;;;;;;;1.20;0.80;;;;;;;17.53;nan;98953.91;4960131;28;20458;-76
2022/10/15 02:27:55;;;;;;;1.38;0.70;;;;;;;17.51;nan;98949.75;4955513;28;20210;-77
2022/10/15 02:30:20;;;;;;;1.13;1.02;;;;;;;17.50;nan;98958.69;4960603;28;20210;-76
2022/10/15 02:32:50;;;;;;;0.70;0.70;;;;;;;17.50;nan;98958.69;4957401;28;20203;-76
2022/10/15 02:35:21;;;;;;;1.40;0.70;;;;;;;17.48;nan;98967.66;4975082;28;20621;-76
2022/10/15 02:37:50;;;;;;;1.73;0.90;;;;;;;17.46;nan;98959.00;4953411;28;20225;-76
2022/10/15 02:40:21;;;;;;;1.77;1.03;;;;;;;17.45;nan;98964.50;4962507;28;20456;-76
2022/10/15 02:42:49;;;;;;;1.03;0.97;;;;;;;17.43;nan;98964.63;4956459;28;20464;-76
2022/10/15 02:45:15;;;;;;;0.77;0.70;;;;;;;17.41;nan;98958.63;4958351;28;20522;-76
2022/10/15 02:47:40;;;;;;;0.80;0.70;;;;;;;17.42;nan;98962.97;4954602;28;20491;-76
2022/10/15 02:50:06;;;;;;;1.33;1.07;;;;;;;17.40;nan;98962.28;4958277;28;20226;-76
2022/10/15 02:52:31;;;;;;;1.43;0.80;;;;;;;17.39;nan;98958.00;4957654;28;20202;-76
2022/10/15 02:54:58;;;;;;;1.00;0.75;;;;;;;17.39;nan;98963.28;4960077;28;20251;-76
2022/10/15 02:57:23;;;;;;;1.57;1.47;;;;;;;17.40;nan;98966.78;4958848;28;20319;-76
2022/10/15 02:59:49;;;;;;;1.00;0.80;;;;;;;17.37;nan;98967.94;4953835;28;20235;-76
2022/10/15 03:02:14;;;;;;;1.37;1.03;;;;;;;17.40;nan;98966.78;4957157;28;20285;-76
2022/10/15 03:04:40;;;;;;;0.97;0.87;;;;;;;17.37;nan;98970.56;4955395;28;20195;-76
2022/10/15 03:07:05;;;;;;;1.53;0.80;;;;;;;17.39;nan;98967.75;4976070;28;20232;-76
2022/10/15 03:09:31;;;;;;;1.37;1.00;;;;;;;17.38;nan;98969.56;4955129;28;20198;-76
2022/10/15 03:11:56;;;;;;;1.33;1.10;;;;;;;17.36;nan;98968.94;4957460;28;20571;-76
2022/10/15 03:14:22;;;;;;;1.43;1.27;;;;;;;17.36;nan;98962.75;4969326;28;20220;-76
2022/10/15 03:16:47;;;;;;;2.20;0.90;;;;;;;17.35;nan;98971.72;4956845;28;20246;-76
2022/10/15 03:19:13;;;;;;;1.00;0.80;;;;;;;17.31;nan;98970.34;4953329;28;20204;-76
2022/10/15 03:21:39;;;;;;;2.00;1.10;;;;;;;17.29;nan;98967.03;4956557;28;20212;-77
2022/10/15 03:24:09;;;;;;;1.08;0.75;;;;;;;17.26;nan;98968.19;4958653;28;20204;-76
2022/10/15 03:26:35;;;;;;;1.40;0.97;;;;;;;17.25;nan;98969.16;4956714;28;20225;-77
2022/10/15 03:29:01;;;;;;;1.10;1.00;;;;;;;17.25;nan;98969.16;4955304;28;20221;-77
2022/10/15 03:31:39;;;;;;;2.40;1.20;;;;;;;17.23;nan;98976.47;4957627;28;20226;-77
2022/10/15 03:34:04;;;;;;;1.30;0.80;;;;;;;17.21;nan;98962.50;4961137;28;20312;-77
2022/10/15 03:36:30;;;;;;;1.20;1.07;;;;;;;17.21;nan;98967.81;4958720;28;20555;-78
2022/10/15 03:38:57;;;;;;;1.10;0.80;;;;;;;17.18;nan;98961.00;4951676;28;20202;-78
2022/10/15 03:41:22;;;;;;;1.00;0.70;;;;;;;17.15;nan;98969.28;4959175;28;20214;-77
2022/10/15 03:43:48;;;;;;;1.57;1.13;;;;;;;17.13;nan;98960.63;4957578;28;20203;-78
2022/10/15 03:46:15;;;;;;;1.98;0.80;;;;;;;17.14;nan;98974.72;4958204;28;20194;-77
2022/10/15 03:48:42;;;;;;;0.95;0.70;;;;;;;17.13;nan;98965.13;4955512;28;20312;-77
2022/10/15 03:51:10;;;;;;;1.95;0.80;;;;;;;17.10;nan;98965.44;4956675;28;20760;-78
2022/10/15 03:53:36;;;;;;;1.10;0.90;;;;;;;17.10;nan;98968.91;4950691;28;20741;-77
2022/10/15 03:56:04;;;;;;;1.00;0.70;;;;;;;17.07;nan;98968.41;4956855;28;20207;-77
2022/10/15 03:58:29;;;;;;;0.90;0.90;;;;;;;17.07;nan;98968.41;4960221;28;20194;-78
2022/10/15 04:00:58;;;;;;;1.25;0.98;;;;;;;17.07;nan;98973.69;4955777;28;20203;-77
2022/10/15 04:03:23;;;;;;;1.00;0.80;;;;;;;17.04;nan;98974.84;4956076;28;20199;-77
2022/10/15 04:05:52;;;;;;;1.30;0.80;;;;;;;17.05;nan;98975.66;4960200;28;20238;-77
2022/10/15 04:08:20;;;;;;;2.15;1.00;;;;;;;17.02;nan;98972.31;4970314;28;20249;-78
2022/10/15 04:10:46;;;;;;;1.10;0.90;;;;;;;17.03;nan;98968.69;4972958;28;20210;-78
2022/10/15 04:13:11;;;;;;;1.13;0.80;;;;;;;17.00;nan;98969.00;4955799;28;20343;-78
2022/10/15 04:15:38;;;;;;;1.77;0.90;;;;;;;17.01;nan;98972.47;4955668;28;20221;-79
2022/10/15 04:18:08;;;;;;;0.80;0.80;;;;;;;17.01;nan;98978.63;4958713;28;20211;-77
2022/10/15 04:20:33;;;;;;;0.97;0.80;;;;;;;17.03;nan;98973.16;4957150;28;20201;-78
2022/10/15 04:23:11;;;;;;;1.33;0.90;;;;;;;17.03;nan;98978.47;4959696;28;20200;-78
2022/10/15 04:25:39;;;;;;;1.23;0.73;;;;;;;17.03;nan;98983.78;4961463;28;20279;-77
2022/10/15 04:28:06;;;;;;;1.17;0.95;;;;;;;17.02;nan;98980.28;4957988;28;20236;-79
2022/10/15 04:30:33;;;;;;;4.00;1.10;;;;;;;17.04;nan;98985.47;4953003;28;20340;-79
2022/10/15 04:33:01;;;;;;;1.63;0.85;;;;;;;17.04;nan;98980.16;4948947;28;20197;-79
2022/10/15 04:35:27;;;;;;;3.00;0.90;;;;;;;17.02;nan;98974.97;4956794;28;20284;-78
2022/10/15 04:38:01;;;;;;;1.92;0.90;;;;;;;17.03;nan;98989.06;4960283;28;20213;-77
2022/10/15 04:40:47;;;;;;;2.28;0.80;;;;;;;17.01;nan;98978.63;4958577;28;20220;-78
2022/10/15 04:43:12;;;;;;;0.90;0.80;;;;;;;17.01;nan;98983.94;4956478;28;20197;-78
2022/10/15 04:45:38;;;;;;;2.63;1.00;;;;;;;17.01;nan;98983.09;4953559;28;20212;-77
2022/10/15 04:48:03;;;;;;;1.80;0.90;;;;;;;17.03;nan;98984.59;4992154;23;20818;-82
2022/10/15 04:50:29;;;;;;;0.90;0.70;;;;;;;17.03;nan;98979.28;4984983;28;20190;-82
2022/10/15 04:53:30;;;;;;;1.63;0.98;;;;;;;17.06;nan;98979.97;4973954;28;20788;-82
2022/10/15 04:56:17;;;;;;;1.00;0.90;;;;;;;17.07;nan;98981.66;4969773;28;20195;-82
2022/10/15 04:58:46;;;;;;;2.33;0.80;;;;;;;17.09;nan;98982.31;4967526;28;20517;-82
2022/10/15 05:01:15;;;;;;;1.10;1.00;;;;;;;17.10;nan;98986.66;4981617;28;20206;-82
2022/10/15 05:03:53;;;;;;;0.90;0.75;;;;;;;17.10;nan;98986.66;4969421;28;20228;-82
2022/10/15 05:06:20;;;;;;;2.13;0.83;;;;;;;17.10;nan;98989.31;4968966;28;20198;-81
2022/10/15 05:08:48;;;;;;;1.15;0.70;;;;;;;17.09;nan;98987.63;4965623;28;20213;-82
2022/10/15 05:11:24;;;;;;;1.13;0.95;;;;;;;17.09;nan;98980.50;4966648;28;20224;-82
2022/10/15 05:13:51;;;;;;;1.50;0.80;;;;;;;17.08;nan;98984.16;4981617;28;20697;-82
2022/10/15 05:16:22;;;;;;;1.38;0.85;;;;;;;17.08;nan;98988.63;4966870;28;20271;-82
2022/10/15 05:18:49;;;;;;;0.70;0.70;;;;;;;17.06;nan;98986.09;4966658;28;20229;-82
2022/10/15 05:21:17;;;;;;;0.77;0.73;;;;;;;17.06;nan;98991.41;4981811;28;20199;-82
2022/10/15 05:23:46;;;;;;;1.02;0.80;;;;;;;17.08;nan;98988.63;4966077;28;20237;-82
2022/10/15 05:26:37;;;;;;;0.90;0.80;;;;;;;17.06;nan;98991.41;4967164;28;20203;-83
2022/10/15 05:29:03;;;;;;;2.60;0.80;;;;;;;17.06;nan;98993.25;4968488;28;20199;-82
2022/10/15 05:31:31;;;;;;;1.45;0.80;;;;;;;17.08;nan;98996.59;4961585;28;20255;-83
2022/10/15 05:34:07;;;;;;;3.55;1.00;;;;;;;17.06;nan;98985.28;4976834;28;20787;-82
2022/10/15 05:36:39;;;;;;;2.85;1.10;;;;;;;17.06;nan;98996.72;4979031;28;20200;-82
2022/10/15 05:39:09;;;;;;;0.70;0.70;;;;;;;17.05;nan;98997.72;4964349;28;20196;-81
2022/10/15 05:41:39;;;;;;;1.10;0.82;;;;;;;17.05;nan;99002.19;4964846;28;20209;-82
2022/10/15 05:44:05;;;;;;;2.00;1.90;;;;;;;17.05;nan;99002.19;4959524;28;20201;-83
2022/10/15 05:46:31;;;;;;;6.00;0.97;;;;;;;17.05;nan;99010.16;4967621;28;20200;-83
2022/10/15 05:48:57;;;;;;;1.23;1.00;;;;;;;17.07;nan;99006.38;4966721;28;20252;-82
2022/10/15 05:51:24;;;;;;;1.73;1.23;;;;;;;17.07;nan;99014.31;4968390;28;20237;-82
2022/10/15 05:53:55;;;;;;;1.13;0.80;;;;;;;17.08;nan;99015.16;4964958;28;20841;-83
2022/10/15 05:56:21;;;;;;;1.67;0.80;;;;;;;17.08;nan;99018.63;4978876;28;20233;-82
2022/10/15 05:58:47;;;;;;;1.30;0.80;;;;;;;17.10;nan;99013.19;4964995;28;20902;-82
2022/10/15 06:01:12;;;;;;;1.10;0.90;;;;;;;17.09;nan;99022.94;4968672;28;20265;-83
2022/10/15 06:03:41;;;;;;;1.58;0.80;;;;;;;17.10;nan;99026.47;4963058;28;20190;-82
2022/10/15 06:06:22;;;;;;;1.42;0.85;;;;;;;17.10;nan;99026.47;4971171;28;20199;-82
2022/10/15 06:08:48;;;;;;;3.83;0.88;;;;;;;17.09;nan;99030.09;4958609;28;20282;-82
2022/10/15 06:11:14;;;;;;;1.85;1.10;;;;;;;17.06;nan;99036.53;4958773;28;20210;-82
2022/10/15 06:13:41;;;;;;;2.38;1.10;;;;;;;17.07;nan;99032.06;4961691;28;20212;-82
2022/10/15 06:16:08;;;;;;;1.80;1.70;;;;;;;17.05;nan;99032.22;4961562;28;20296;-83
2022/10/15 06:18:34;;;;;;;1.02;0.90;;;;;;;17.04;nan;99038.53;4960882;28;20221;-82
2022/10/15 06:20:59;;;;;;;1.48;0.93;;;;;;;17.05;nan;99050.78;4963860;28;20535;-82
2022/10/15 06:23:25;;;;;;;4.33;1.47;;;;;;;17.05;nan;99056.09;4962329;28;20557;-82
2022/10/15 06:25:50;;;;;;;1.43;1.00;;;;;;;17.07;nan;99042.69;4961130;28;20209;-82
2022/10/15 06:28:16;;;;;;;1.10;0.90;;;;;;;17.07;nan;99048.81;4961922;28;20256;-82
2022/10/15 06:30:42;;;;;;;2.10;1.40;;;;;;;17.09;nan;99046.00;4963222;28;20215;-83
2022/10/15 06:33:07;;;;;;;2.80;0.98;;;;;;;17.09;nan;99051.31;4964393;28;20193;-82
2022/10/15 06:35:34;;;;;;;1.40;1.30;;;;;;;17.11;nan;99049.34;4962405;28;20182;-82
2022/10/15 06:38:04;;;;;;;1.85;1.20;;;;;;;17.14;nan;99054.34;4964792;28;20246;-82
2022/10/15 06:40:30;;;;;;;2.70;1.05;;;;;;;17.18;nan;99058.38;4966314;28;20699;-82
2022/10/15 06:43:06;;;;;;;2.35;0.80;;;;;;;17.22;nan;99049.09;4962374;28;20200;-83
2022/10/15 06:45:35;;;;;;;3.58;1.00;;;;;;;17.26;nan;99061.09;4963093;28;20248;-82
2022/10/15 06:48:05;;;;;;;2.00;0.80;;;;;;;17.30;nan;99048.34;4979768;28;20251;-82
2022/10/15 06:50:33;;;;;;;0.80;0.70;;;;;;;17.34;nan;99053.19;4970461;28;20224;-84
2022/10/15 06:52:59;;;;;;;1.02;0.90;;;;;;;17.37;nan;99047.56;4966502;28;20507;-83
2022/10/15 06:55:27;;;;;;;2.80;1.23;;;;;;;17.44;nan;99047.75;4963793;28;20203;-82
2022/10/15 06:57:55;;;;;;;2.35;0.90;;;;;;;17.50;nan;99056.94;4965942;28;20205;-83
2022/10/15 07:00:25;;;;;;;1.17;0.90;;;;;;;17.59;nan;99048.03;4965680;28;20199;-83
2022/10/15 07:02:52;;;;;;;1.73;0.77;;;;;;;17.63;nan;99068.84;4962707;28;20451;-83
2022/10/15 07:05:18;;;;;;;2.10;1.00;;;;;;;17.67;nan;99059.53;4959933;28;20200;-82
2022/10/15 07:07:54;;;;;;;2.88;0.93;;;;;;;17.71;nan;99060.06;4961066;28;20253;-82
2022/10/15 07:10:20;;;;;;;3.50;1.00;;;;;;;17.73;nan;99071.38;4961884;28;20210;-82
2022/10/15 07:12:45;;;;;;;1.10;0.80;;;;;;;17.75;nan;99064.09;4960149;28;20189;-82
2022/10/15 07:15:11;;;;;;;1.33;0.87;;;;;;;17.76;nan;99063.09;4961263;28;20322;-83
2022/10/15 07:17:38;;;;;;;2.00;0.87;;;;;;;17.79;nan;99059.31;4959904;28;20467;-82
2022/10/15 07:20:04;;;;;;;2.53;1.00;;;;;;;17.80;nan;99050.38;4961303;28;20248;-82
2022/10/15 07:22:29;;;;;;;2.03;1.10;;;;;;;17.83;nan;99058.84;4964144;28;20197;-82
2022/10/15 07:24:55;;;;;;;2.00;0.80;;;;;;;17.84;nan;99043.72;4961898;28;21017;-82
2022/10/15 07:27:20;;;;;;;2.40;1.20;;;;;;;17.86;nan;99055.88;4962438;28;20467;-81
2022/10/15 07:29:46;;;;;;;1.30;0.90;;;;;;;17.88;nan;99048.59;4965562;28;20230;-82
2022/10/15 07:32:11;;;;;;;1.10;0.97;;;;;;;17.91;nan;99055.41;4963010;28;20196;-82
2022/10/15 07:34:36;;;;;;;3.80;1.20;;;;;;;17.98;nan;99058.25;4961803;28;20461;-82
2022/10/15 07:37:02;;;;;;;2.97;1.00;;;;;;;18.04;nan;99070.94;4963727;28;20226;-81
2022/10/15 07:39:27;;;;;;;1.10;0.80;;;;;;;18.08;nan;99073.09;4963156;28;20221;-82
2022/10/15 07:41:53;;;;;;;2.03;1.10;;;;;;;18.12;nan;99071.78;4959568;28;20709;-81
2022/10/15 07:44:18;;;;;;;6.70;1.50;;;;;;;18.18;nan;99086.28;4959832;28;20210;-81
2022/10/15 07:46:45;;;;;;;1.60;0.70;;;;;;;18.20;nan;99086.09;4959404;28;20279;-82
2022/10/15 07:49:11;;;;;;;1.67;1.00;;;;;;;18.20;nan;99084.28;4961076;28;20250;-81
2022/10/15 07:51:36;;;;;;;1.83;0.83;;;;;;;18.25;nan;99083.78;4960306;28;20706;-81
2022/10/15 07:54:01;;;;;;;1.77;1.53;;;;;;;18.29;nan;99091.31;4954012;28;20263;-81
2022/10/15 07:56:27;;;;;;;2.93;1.10;;;;;;;18.34;nan;99091.66;4964325;28;20626;-81
2022/10/15 07:58:52;;;;;;;0.90;0.80;;;;;;;18.44;nan;99088.03;4960286;28;20201;-82
2022/10/15 08:01:19;;;;;;;1.10;1.00;;;;;;;18.53;nan;99087.91;4963009;28;20436;-82
2022/10/15 08:03:45;;;;;;;1.53;0.90;;;;;;;18.69;nan;99104.91;4963562;28;20188;-81
2022/10/15 08:06:11;;;;;;;1.10;0.87;;;;;;;18.82;nan;99099.97;4961654;28;20457;-81
2022/10/15 08:08:37;;;;;;;2.10;0.97;;;;;;;18.98;nan;99099.16;4961808;28;20211;-82
2022/10/15 08:11:14;;;;;;;1.17;0.87;;;;;;;19.09;nan;99098.88;4960217;28;20207;-81
2022/10/15 08:13:41;;;;;;;1.80;1.10;;;;;;;19.16;nan;99107.84;4958465;28;20743;-81
2022/10/15 08:16:09;;;;;;;2.67;1.27;;;;;;;19.24;nan;99099.03;4976591;28;21173;-82
2022/10/15 08:18:35;;;;;;;1.03;0.93;;;;;;;19.38;nan;99098.38;4971813;28;20472;-82
2022/10/15 08:21:00;;;;;;;1.47;1.10;;;;;;;19.62;nan;99113.50;4959689;28;20474;-82
2022/10/15 08:23:26;;;;;;;1.47;0.90;;;;;;;19.71;nan;99110.88;4960052;28;20441;-82
2022/10/15 08:25:51;;;;;;;0.93;0.83;;;;;;;19.69;nan;99112.91;4964278;28;20219;-82
2022/10/15 08:28:17;;;;;;;1.93;1.13;;;;;;;19.56;nan;99113.38;4961113;28;20588;-82
2022/10/15 08:30:42;;;;;;;1.33;0.90;;;;;;;19.43;nan;99111.19;4959477;28;20195;-78
2022/10/15 08:33:11;;;;;;;1.90;0.90;;;;;;;19.35;nan;99112.03;4958360;28;20193;-81
2022/10/15 08:35:40;;;;;;;2.13;0.90;;;;;;;19.27;nan;99125.34;4961707;28;20572;-81
2022/10/15 08:38:05;;;;;;;2.60;0.80;;;;;;;19.18;nan;99121.84;4963843;28;20468;-82
2022/10/15 08:40:31;;;;;;;2.50;0.90;;;;;;;19.12;nan;99134.97;4962983;28;20993;-81
2022/10/15 08:42:57;;;;;;;1.10;0.93;;;;;;;19.07;nan;99132.81;4962527;28;20194;-81
2022/10/15 08:45:35;;;;;;;1.30;1.20;;;;;;;19.04;nan;99124.28;4965186;28;20193;-81
2022/10/15 08:48:11;;;;;;;3.00;0.90;;;;;;;19.02;nan;99121.81;4958540;28;20268;-81
2022/10/15 08:50:39;;;;;;;3.97;1.37;;;;;;;19.04;nan;99114.50;4959183;28;20592;-81
2022/10/15 08:53:05;;;;;;;7.13;1.30;;;;;;;19.09;nan;99128.16;4963076;28;20462;-81
2022/10/15 08:55:39;;;;;;;1.97;0.90;;;;;;;19.13;nan;99118.84;4962363;28;20461;-81
2022/10/15 08:58:19;;;;;;;0.80;0.77;;;;;;;19.15;nan;99116.84;4959439;28;20201;-82
2022/10/15 09:00:56;;;;;;;3.83;0.90;;;;;;;19.14;nan;99119.66;4965153;28;20528;-81
2022/10/15 09:03:30;;;;;;;6.33;0.83;;;;;;;19.13;nan;99113.50;4963456;28;20944;-80
2022/10/15 09:06:05;;;;;;;1.27;0.97;;;;;;;19.17;nan;99112.19;4966034;28;20529;-79
2022/10/15 09:08:49;;;;;;;3.43;2.20;;;;;;;19.29;nan;99119.84;4966428;28;20481;-81
2022/10/15 09:11:52;;;;;;;2.13;1.50;;;;;;;19.33;nan;99129.16;4966129;28;20456;-82
2022/10/15 09:14:25;;;;;;;1.73;1.20;;;;;;;19.31;nan;99129.34;4966694;28;20469;-81
2022/10/15 09:16:50;;;;;;;1.63;0.90;;;;;;;19.30;nan;99114.34;4969453;28;20949;-80
2022/10/15 09:19:25;;;;;;;1.20;0.77;;;;;;;19.31;nan;99121.34;4970208;28;20475;-81
2022/10/15 09:21:51;;;;;;;0.90;0.80;;;;;;;19.34;nan;99130.84;4966856;28;20312;-81
2022/10/15 09:24:22;;;;;;;1.10;0.90;;;;;;;19.32;nan;99107.03;4963631;28;20436;-80
2022/10/15 09:26:54;;;;;;;1.07;0.90;;;;;;;19.31;nan;99124.03;4961387;28;20506;-80
2022/10/15 09:29:39;;;;;;;1.97;0.77;;;;;;;19.31;nan;99120.50;4960290;28;20979;-80
2022/10/15 09:32:20;;;;;;;3.47;1.10;;;;;;;19.35;nan;99117.34;4961413;28;20480;-80
2022/10/15 09:34:59;;;;;;;0.80;0.70;;;;;;;19.37;nan;99119.84;4958663;28;20904;-80
2022/10/15 09:37:34;;;;;;;0.90;0.80;;;;;;;19.41;nan;99111.34;4958302;28;20463;-80
2022/10/15 09:40:06;;;;;;;3.10;0.90;;;;;;;19.53;nan;99114.53;4961080;28;20960;-80
2022/10/15 09:42:38;;;;;;;2.80;1.00;;;;;;;19.62;nan;99126.84;4963931;28;20432;-80
2022/10/15 09:45:08;;;;;;;2.53;0.90;;;;;;;19.71;nan;99129.53;4956765;28;20840;-79
2022/10/15 09:47:34;;;;;;;2.57;1.30;;;;;;;19.83;nan;99130.84;4959499;28;20753;-80
2022/10/15 09:50:02;;;;;;;1.67;0.87;;;;;;;19.97;nan;99134.66;4963936;28;20468;-80
2022/10/15 09:53:06;;;;;;;1.30;0.90;;;;;;;20.09;nan;99146.63;4963177;28;20437;-80
2022/10/15 09:55:45;;;;;;;1.53;1.00;;;;;;;20.16;nan;99139.63;4977625;28;20433;-79
2022/10/15 09:58:15;;;;;;;1.47;1.20;;;;;;;20.21;nan;99120.44;4961837;28;20479;-80
2022/10/15 10:00:50;;;;;;;1.70;0.93;;;;;;;20.23;nan;99118.44;4958369;28;21080;-80
2022/10/15 10:03:15;;;;;;;1.80;1.10;;;;;;;20.15;nan;99134.47;4961038;28;20765;-80
2022/10/15 10:05:42;;;;;;;1.00;0.90;;;;;;;20.02;nan;99133.16;4957470;28;20481;-80
2022/10/15 10:08:26;;;;;;;1.50;1.00;;;;;;;19.91;nan;99138.84;4958085;28;20217;-79
2022/10/15 10:10:57;;;;;;;1.70;1.00;;;;;;;19.79;nan;99127.69;4957280;28;20534;-79
2022/10/15 10:13:27;;;;;;;1.07;0.87;;;;;;;19.76;nan;99145.84;4958046;28;20540;-80
2022/10/15 10:15:55;;;;;;;1.70;1.43;;;;;;;19.75;nan;99142.34;4962641;28;20543;-79
2022/10/15 10:18:24;;;;;;;1.80;1.00;;;;;;;19.74;nan;99150.50;4957698;28;20543;-79
2022/10/15 10:20:58;;;;;;;1.90;1.00;;;;;;;19.73;nan;99151.50;4918214;28;20885;-80
2022/10/15 10:23:30;;;;;;;2.40;1.10;;;;;;;19.74;nan;99158.50;4962759;28;20511;-79
2022/10/15 10:25:58;;;;;;;1.10;1.00;;;;;;;19.81;nan;99152.34;4971714;28;20514;-78
2022/10/15 10:28:39;;;;;;;1.60;1.00;;;;;;;19.91;nan;99154.00;4964563;28;20454;-79
2022/10/15 10:31:08;;;;;;;2.07;1.00;;;;;;;19.93;nan;99150.19;4967962;28;20438;-79
2022/10/15 10:33:41;;;;;;;2.45;1.08;;;;;;;19.98;nan;99147.84;4967071;28;20502;-79
2022/10/15 10:36:17;;;;;;;2.13;1.20;;;;;;;20.00;nan;99144.97;4967324;28;20433;-79
2022/10/15 10:39:01;;;;;;;2.60;1.40;;;;;;;19.97;nan;99148.81;4971392;28;20471;-79
2022/10/15 10:41:50;;;;;;;1.73;1.20;;;;;;;19.92;nan;99148.50;4967278;28;20532;-79
2022/10/15 10:44:21;;;;;;;1.30;0.90;;;;;;;19.88;nan;99144.50;4973756;28;21210;-79
2022/10/15 10:47:12;;;;;;;1.00;0.90;;;;;;;19.84;nan;99137.84;4968467;28;20892;-79
2022/10/15 10:49:43;;;;;;;1.93;1.03;;;;;;;19.81;nan;99135.53;4969879;28;21250;-80
2022/10/15 10:52:28;;;;;;;3.60;1.00;;;;;;;19.82;nan;99139.84;4975078;28;20445;-79
2022/10/15 10:55:18;;;;;;;1.37;1.00;;;;;;;19.85;nan;99142.19;4985955;28;20475;-79
2022/10/15 10:57:58;;;;;;;2.10;1.30;;;;;;;19.87;nan;99137.50;4968615;28;20518;-79
2022/10/15 11:00:41;;;;;;;3.50;1.07;;;;;;;19.89;nan;99147.00;4967550;28;20991;-79
2022/10/15 11:03:19;;;;;;;2.70;1.10;;;;;;;19.98;nan;99145.19;4972736;28;20453;-79
2022/10/15 11:05:47;;;;;;;1.30;0.90;;;;;;;20.08;nan;99145.78;4991655;28;20452;-80
2022/10/15 11:08:25;;;;;;;2.30;1.30;;;;;;;20.13;nan;99145.28;4973865;28;20488;-80
2022/10/15 11:11:11;;;;;;;1.63;1.10;;;;;;;20.20;nan;99145.44;4976795;28;21902;-79
2022/10/15 11:14:16;;;;;;;1.90;1.10;;;;;;;20.26;nan;99136.78;4972155;28;20562;-80
2022/10/15 11:16:44;;;;;;;0.70;0.70;;;;;;;20.30;nan;99146.06;4971463;28;20559;-80
2022/10/15 11:19:34;;;;;;;1.10;0.73;;;;;;;20.30;nan;99133.56;4973630;28;20450;-80
2022/10/15 11:22:26;;;;;;;1.07;0.93;;;;;;;20.34;nan;99123.41;4973807;28;20488;-80
2022/10/15 11:25:16;;;;;;;7.13;1.20;;;;;;;20.40;nan;99128.03;4970492;28;20441;-80
2022/10/15 11:28:09;;;;;;;1.50;0.90;;;;;;;20.45;nan;99124.88;4978283;28;20493;-80
2022/10/15 11:30:49;;;;;;;3.07;1.00;;;;;;;20.54;nan;99114.00;4976935;28;20433;-79
2022/10/15 11:33:44;;;;;;;1.10;0.80;;;;;;;20.59;nan;99116.16;4975371;28;20429;-80
2022/10/15 11:36:36;;;;;;;2.13;1.10;;;;;;;20.59;nan;99108.16;4974586;28;20454;-79
2022/10/15 11:39:40;;;;;;;1.20;1.07;;;;;;;20.57;nan;99101.31;4971531;28;20461;-79
2022/10/15 11:42:31;;;;;;;2.60;1.40;;;;;;;20.59;nan;99099.31;4947857;29;20461;-79
2022/10/15 11:45:17;;;;;;;0.83;0.80;;;;;;;20.60;nan;99098.31;4948436;29;20477;-80
2022/10/15 11:47:48;;;;;;;1.40;0.90;;;;;;;20.58;nan;99101.16;4966990;28;20597;-80
2022/10/15 11:50:38;;;;;;;1.10;0.93;;;;;;;20.60;nan;99123.13;4966110;28;20738;-80
2022/10/15 11:53:25;;;;;;;1.10;0.90;;;;;;;20.62;nan;99133.66;4982687;28;20445;-80
2022/10/15 11:56:08;;;;;;;1.50;0.90;;;;;;;20.57;nan;99136.84;4972197;28;20461;-80
2022/10/15 11:58:40;;;;;;;1.40;1.07;;;;;;;20.53;nan;99139.03;4971671;28;20469;-80
2022/10/15 12:01:20;;;;;;;1.70;0.90;;;;;;;20.44;nan;99132.03;4967662;28;20709;-79
2022/10/15 12:03:53;;;;;;;2.40;1.50;;;;;;;20.40;nan;99141.38;4971445;28;20473;-79
2022/10/15 12:06:23;;;;;;;2.27;1.03;;;;;;;20.38;nan;99134.56;4974900;28;20445;-79
2022/10/15 12:08:51;;;;;;;2.67;0.97;;;;;;;20.33;nan;99130.56;4973000;28;20497;-79
2022/10/15 12:11:35;;;;;;;2.50;1.17;;;;;;;20.33;nan;99133.25;4969934;28;20453;-79